sensor_id;sensor_type;location;lat;lon;timestamp;temperature;humidity
17399;DHT22;8817;48.170;8.592;2022-09-19T00:01:32;14.70;48.90
17399;DHT22;8817;48.170;8.592;2022-09-19T00:04:01;14.70;48.90
17399;DHT22;8817;48.170;8.592;2022-09-19T00:06:30;14.60;48.90
17399;DHT22;8817;48.170;8.592;2022-09-19T00:08:59;14.60;49.00
17399;DHT22;8817;48.170;8.592;2022-09-19T00:11:26;14.60;49.00
17399;DHT22;8817;48.170;8.592;2022-09-19T00:13:55;14.60;49.10
17399;DHT22;8817;48.170;8.592;2022-09-19T00:16:24;14.60;49.10
17399;DHT22;8817;48.170;8.592;2022-09-19T00:18:54;14.60;49.10
17399;DHT22;8817;48.170;8.592;2022-09-19T00:21:22;14.60;49.10
17399;DHT22;8817;48.170;8.592;2022-09-19T00:23:49;14.50;49.10
17399;DHT22;8817;48.170;8.592;2022-09-19T00:26:35;14.50;49.10
17399;DHT22;8817;48.170;8.592;2022-09-19T00:29:04;14.50;49.20
17399;DHT22;8817;48.170;8.592;2022-09-19T00:31:31;14.50;49.20
17399;DHT22;8817;48.170;8.592;2022-09-19T00:33:58;14.50;49.20
17399;DHT22;8817;48.170;8.592;2022-09-19T00:36:26;14.50;49.20
17399;DHT22;8817;48.170;8.592;2022-09-19T00:38:53;14.40;49.20
17399;DHT22;8817;48.170;8.592;2022-09-19T00:41:22;14.50;49.30
17399;DHT22;8817;48.170;8.592;2022-09-19T00:43:54;14.50;49.30
17399;DHT22;8817;48.170;8.592;2022-09-19T00:46:23;14.50;49.30
17399;DHT22;8817;48.170;8.592;2022-09-19T00:48:54;14.50;49.90
17399;DHT22;8817;48.170;8.592;2022-09-19T00:51:27;14.40;49.30
17399;DHT22;8817;48.170;8.592;2022-09-19T00:53:59;14.40;49.40
17399;DHT22;8817;48.170;8.592;2022-09-19T00:56:27;14.40;49.40
17399;DHT22;8817;48.170;8.592;2022-09-19T00:58:57;14.40;49.40
17399;DHT22;8817;48.170;8.592;2022-09-19T01:01:25;14.40;49.40
17399;DHT22;8817;48.170;8.592;2022-09-19T01:03:52;14.30;49.40
17399;DHT22;8817;48.170;8.592;2022-09-19T01:06:39;14.30;49.40
17399;DHT22;8817;48.170;8.592;2022-09-19T01:09:24;14.30;49.50
17399;DHT22;8817;48.170;8.592;2022-09-19T01:12:13;14.30;49.50
17399;DHT22;8817;48.170;8.592;2022-09-19T01:15:02;14.40;49.60
17399;DHT22;8817;48.170;8.592;2022-09-19T01:17:36;14.40;49.50
17399;DHT22;8817;48.170;8.592;2022-09-19T01:23:32;14.40;49.50
17399;DHT22;8817;48.170;8.592;2022-09-19T01:26:09;14.40;49.50
17399;DHT22;8817;48.170;8.592;2022-09-19T01:28:43;14.40;49.60
17399;DHT22;8817;48.170;8.592;2022-09-19T01:31:16;14.50;49.60
17399;DHT22;8817;48.170;8.592;2022-09-19T01:33:51;14.50;49.60
17399;DHT22;8817;48.170;8.592;2022-09-19T01:36:23;14.40;49.50
17399;DHT22;8817;48.170;8.592;2022-09-19T01:38:52;14.40;49.50
17399;DHT22;8817;48.170;8.592;2022-09-19T01:41:23;14.40;49.50
17399;DHT22;8817;48.170;8.592;2022-09-19T01:43:51;14.40;49.50
17399;DHT22;8817;48.170;8.592;2022-09-19T01:46:24;14.40;49.60
17399;DHT22;8817;48.170;8.592;2022-09-19T01:48:56;14.40;49.70
17399;DHT22;8817;48.170;8.592;2022-09-19T01:51:36;14.40;49.70
17399;DHT22;8817;48.170;8.592;2022-09-19T01:57:04;14.30;49.70
17399;DHT22;8817;48.170;8.592;2022-09-19T02:00:04;14.40;49.70
17399;DHT22;8817;48.170;8.592;2022-09-19T02:02:41;14.30;49.70
17399;DHT22;8817;48.170;8.592;2022-09-19T02:05:11;14.40;49.80
17399;DHT22;8817;48.170;8.592;2022-09-19T02:07:42;14.40;49.80
17399;DHT22;8817;48.170;8.592;2022-09-19T02:10:17;14.40;49.90
17399;DHT22;8817;48.170;8.592;2022-09-19T02:12:46;14.40;49.90
17399;DHT22;8817;48.170;8.592;2022-09-19T02:15:17;14.40;50.40
17399;DHT22;8817;48.170;8.592;2022-09-19T02:17:52;14.40;49.90
17399;DHT22;8817;48.170;8.592;2022-09-19T02:20:24;14.50;50.00
17399;DHT22;8817;48.170;8.592;2022-09-19T02:22:57;14.50;50.00
17399;DHT22;8817;48.170;8.592;2022-09-19T02:25:28;14.50;50.00
17399;DHT22;8817;48.170;8.592;2022-09-19T02:28:01;14.60;50.10
17399;DHT22;8817;48.170;8.592;2022-09-19T02:30:33;14.60;50.10
17399;DHT22;8817;48.170;8.592;2022-09-19T02:33:01;14.60;50.10
17399;DHT22;8817;48.170;8.592;2022-09-19T02:35:40;14.70;50.10
17399;DHT22;8817;48.170;8.592;2022-09-19T02:38:15;14.70;50.10
17399;DHT22;8817;48.170;8.592;2022-09-19T02:40:49;14.70;50.10
17399;DHT22;8817;48.170;8.592;2022-09-19T02:43:24;14.80;50.10
17399;DHT22;8817;48.170;8.592;2022-09-19T02:45:55;14.80;50.10
17399;DHT22;8817;48.170;8.592;2022-09-19T02:48:30;14.80;50.00
17399;DHT22;8817;48.170;8.592;2022-09-19T02:51:06;14.80;50.00
17399;DHT22;8817;48.170;8.592;2022-09-19T02:53:39;14.80;49.90
17399;DHT22;8817;48.170;8.592;2022-09-19T02:56:08;14.70;49.80
17399;DHT22;8817;48.170;8.592;2022-09-19T02:58:43;14.70;49.80
17399;DHT22;8817;48.170;8.592;2022-09-19T03:01:18;14.70;49.80
17399;DHT22;8817;48.170;8.592;2022-09-19T03:03:50;14.70;49.90
17399;DHT22;8817;48.170;8.592;2022-09-19T03:06:38;14.70;49.90
17399;DHT22;8817;48.170;8.592;2022-09-19T03:09:09;14.60;49.90
17399;DHT22;8817;48.170;8.592;2022-09-19T03:11:40;14.60;49.90
17399;DHT22;8817;48.170;8.592;2022-09-19T03:14:08;14.60;49.90
17399;DHT22;8817;48.170;8.592;2022-09-19T03:16:40;14.60;49.90
17399;DHT22;8817;48.170;8.592;2022-09-19T03:19:09;14.60;50.00
17399;DHT22;8817;48.170;8.592;2022-09-19T03:21:36;14.60;49.90
17399;DHT22;8817;48.170;8.592;2022-09-19T03:24:05;14.50;49.80
17399;DHT22;8817;48.170;8.592;2022-09-19T03:26:34;14.50;49.90
17399;DHT22;8817;48.170;8.592;2022-09-19T03:29:03;14.50;49.90
17399;DHT22;8817;48.170;8.592;2022-09-19T03:31:30;14.50;50.00
17399;DHT22;8817;48.170;8.592;2022-09-19T03:33:58;14.50;50.00
17399;DHT22;8817;48.170;8.592;2022-09-19T03:36:26;14.50;50.00
17399;DHT22;8817;48.170;8.592;2022-09-19T03:38:54;14.50;50.00
17399;DHT22;8817;48.170;8.592;2022-09-19T03:41:28;14.40;49.90
17399;DHT22;8817;48.170;8.592;2022-09-19T03:43:58;14.40;49.90
17399;DHT22;8817;48.170;8.592;2022-09-19T03:46:28;14.40;49.90
17399;DHT22;8817;48.170;8.592;2022-09-19T03:48:57;14.40;49.90
17399;DHT22;8817;48.170;8.592;2022-09-19T03:51:26;14.40;50.50
17399;DHT22;8817;48.170;8.592;2022-09-19T03:53:53;14.30;49.90
17399;DHT22;8817;48.170;8.592;2022-09-19T03:56:20;14.30;49.90
17399;DHT22;8817;48.170;8.592;2022-09-19T03:58:47;14.30;49.90
17399;DHT22;8817;48.170;8.592;2022-09-19T04:01:14;14.30;49.90
17399;DHT22;8817;48.170;8.592;2022-09-19T04:03:42;14.20;49.80
17399;DHT22;8817;48.170;8.592;2022-09-19T04:06:13;14.20;49.80
17399;DHT22;8817;48.170;8.592;2022-09-19T04:08:40;14.20;49.80
17399;DHT22;8817;48.170;8.592;2022-09-19T04:11:07;14.20;49.80
17399;DHT22;8817;48.170;8.592;2022-09-19T04:13:35;14.20;49.80
17399;DHT22;8817;48.170;8.592;2022-09-19T04:16:03;14.10;49.70
17399;DHT22;8817;48.170;8.592;2022-09-19T04:18:31;14.10;49.70
17399;DHT22;8817;48.170;8.592;2022-09-19T04:20:59;14.10;49.80
17399;DHT22;8817;48.170;8.592;2022-09-19T04:23:27;14.10;49.70
17399;DHT22;8817;48.170;8.592;2022-09-19T04:25:54;14.00;49.70
17399;DHT22;8817;48.170;8.592;2022-09-19T04:28:23;14.00;49.70
17399;DHT22;8817;48.170;8.592;2022-09-19T04:30:50;14.00;49.70
17399;DHT22;8817;48.170;8.592;2022-09-19T04:33:17;13.90;49.70
17399;DHT22;8817;48.170;8.592;2022-09-19T04:35:47;13.90;49.70
17399;DHT22;8817;48.170;8.592;2022-09-19T04:38:16;13.90;49.80
17399;DHT22;8817;48.170;8.592;2022-09-19T04:40:47;13.80;49.70
17399;DHT22;8817;48.170;8.592;2022-09-19T04:43:18;13.80;49.70
17399;DHT22;8817;48.170;8.592;2022-09-19T04:45:46;13.80;49.80
17399;DHT22;8817;48.170;8.592;2022-09-19T04:48:15;13.80;49.90
17399;DHT22;8817;48.170;8.592;2022-09-19T04:50:44;13.80;49.90
17399;DHT22;8817;48.170;8.592;2022-09-19T04:53:11;13.80;49.90
17399;DHT22;8817;48.170;8.592;2022-09-19T04:55:42;13.80;49.80
17399;DHT22;8817;48.170;8.592;2022-09-19T04:58:11;13.80;49.80
17399;DHT22;8817;48.170;8.592;2022-09-19T05:00:40;13.70;49.70
17399;DHT22;8817;48.170;8.592;2022-09-19T05:03:10;13.70;49.70
17399;DHT22;8817;48.170;8.592;2022-09-19T05:05:39;13.70;49.70
17399;DHT22;8817;48.170;8.592;2022-09-19T05:08:11;13.60;49.70
17399;DHT22;8817;48.170;8.592;2022-09-19T05:10:38;13.60;49.70
17399;DHT22;8817;48.170;8.592;2022-09-19T05:13:05;13.60;49.70
17399;DHT22;8817;48.170;8.592;2022-09-19T05:15:33;13.60;49.70
17399;DHT22;8817;48.170;8.592;2022-09-19T05:18:00;13.60;49.70
17399;DHT22;8817;48.170;8.592;2022-09-19T05:20:27;13.60;49.70
17399;DHT22;8817;48.170;8.592;2022-09-19T05:22:55;13.50;49.70
17399;DHT22;8817;48.170;8.592;2022-09-19T05:25:25;13.50;49.70
17399;DHT22;8817;48.170;8.592;2022-09-19T05:27:55;13.50;49.70
17399;DHT22;8817;48.170;8.592;2022-09-19T05:30:22;13.40;49.70
17399;DHT22;8817;48.170;8.592;2022-09-19T05:32:53;13.40;49.70
17399;DHT22;8817;48.170;8.592;2022-09-19T05:35:20;13.40;49.90
17399;DHT22;8817;48.170;8.592;2022-09-19T05:37:47;13.40;49.90
17399;DHT22;8817;48.170;8.592;2022-09-19T05:40:14;13.40;49.90
17399;DHT22;8817;48.170;8.592;2022-09-19T05:42:41;13.40;50.00
17399;DHT22;8817;48.170;8.592;2022-09-19T05:45:10;13.40;50.00
17399;DHT22;8817;48.170;8.592;2022-09-19T05:47:37;13.40;50.10
17399;DHT22;8817;48.170;8.592;2022-09-19T05:50:08;13.40;50.10
17399;DHT22;8817;48.170;8.592;2022-09-19T05:52:35;13.40;50.10
17399;DHT22;8817;48.170;8.592;2022-09-19T05:55:20;13.50;50.20
17399;DHT22;8817;48.170;8.592;2022-09-19T05:57:50;13.40;50.10
17399;DHT22;8817;48.170;8.592;2022-09-19T06:00:18;13.50;50.20
17399;DHT22;8817;48.170;8.592;2022-09-19T06:02:52;13.50;50.20
17399;DHT22;8817;48.170;8.592;2022-09-19T06:05:22;13.50;50.30
17399;DHT22;8817;48.170;8.592;2022-09-19T06:07:50;13.50;50.30
17399;DHT22;8817;48.170;8.592;2022-09-19T06:10:18;13.60;50.40
17399;DHT22;8817;48.170;8.592;2022-09-19T06:12:45;13.60;50.40
17399;DHT22;8817;48.170;8.592;2022-09-19T06:15:12;13.60;50.40
17399;DHT22;8817;48.170;8.592;2022-09-19T06:17:38;13.70;50.40
17399;DHT22;8817;48.170;8.592;2022-09-19T06:20:06;13.70;50.40
17399;DHT22;8817;48.170;8.592;2022-09-19T06:22:35;13.70;50.50
17399;DHT22;8817;48.170;8.592;2022-09-19T06:25:02;13.80;50.60
17399;DHT22;8817;48.170;8.592;2022-09-19T06:27:29;13.80;50.50
17399;DHT22;8817;48.170;8.592;2022-09-19T06:29:56;13.80;50.60
17399;DHT22;8817;48.170;8.592;2022-09-19T06:32:24;13.90;50.60
17399;DHT22;8817;48.170;8.592;2022-09-19T06:34:51;13.90;50.50
17399;DHT22;8817;48.170;8.592;2022-09-19T06:37:18;13.90;50.60
17399;DHT22;8817;48.170;8.592;2022-09-19T06:39:46;14.00;50.70
17399;DHT22;8817;48.170;8.592;2022-09-19T06:42:13;14.00;50.70
17399;DHT22;8817;48.170;8.592;2022-09-19T06:44:40;14.10;50.80
17399;DHT22;8817;48.170;8.592;2022-09-19T06:47:07;14.10;50.80
17399;DHT22;8817;48.170;8.592;2022-09-19T06:49:34;14.10;50.80
17399;DHT22;8817;48.170;8.592;2022-09-19T06:52:02;14.20;50.90
17399;DHT22;8817;48.170;8.592;2022-09-19T06:54:29;14.20;50.90
17399;DHT22;8817;48.170;8.592;2022-09-19T06:56:58;14.30;50.90
17399;DHT22;8817;48.170;8.592;2022-09-19T06:59:26;14.30;50.90
17399;DHT22;8817;48.170;8.592;2022-09-19T07:01:53;14.40;50.90
17399;DHT22;8817;48.170;8.592;2022-09-19T07:04:20;14.40;51.00
17399;DHT22;8817;48.170;8.592;2022-09-19T07:06:47;14.50;51.00
17399;DHT22;8817;48.170;8.592;2022-09-19T07:09:14;14.50;50.90
17399;DHT22;8817;48.170;8.592;2022-09-19T07:11:41;14.60;51.00
17399;DHT22;8817;48.170;8.592;2022-09-19T07:14:12;14.60;51.00
17399;DHT22;8817;48.170;8.592;2022-09-19T07:16:39;14.60;50.90
17399;DHT22;8817;48.170;8.592;2022-09-19T07:19:06;14.70;51.00
17399;DHT22;8817;48.170;8.592;2022-09-19T07:21:32;14.80;51.10
17399;DHT22;8817;48.170;8.592;2022-09-19T07:24:00;14.80;51.10
17399;DHT22;8817;48.170;8.592;2022-09-19T07:26:28;14.90;51.10
17399;DHT22;8817;48.170;8.592;2022-09-19T07:28:55;15.00;51.10
17399;DHT22;8817;48.170;8.592;2022-09-19T07:31:24;15.00;51.20
17399;DHT22;8817;48.170;8.592;2022-09-19T07:33:52;15.00;51.20
17399;DHT22;8817;48.170;8.592;2022-09-19T07:36:20;15.10;51.10
17399;DHT22;8817;48.170;8.592;2022-09-19T07:38:48;15.20;51.20
17399;DHT22;8817;48.170;8.592;2022-09-19T07:41:15;15.30;51.30
17399;DHT22;8817;48.170;8.592;2022-09-19T07:43:43;15.40;51.20
17399;DHT22;8817;48.170;8.592;2022-09-19T07:46:30;15.40;51.20
17399;DHT22;8817;48.170;8.592;2022-09-19T07:48:57;15.40;51.20
17399;DHT22;8817;48.170;8.592;2022-09-19T07:51:24;15.50;51.10
17399;DHT22;8817;48.170;8.592;2022-09-19T07:53:54;15.50;51.10
17399;DHT22;8817;48.170;8.592;2022-09-19T07:56:22;15.60;51.10
17399;DHT22;8817;48.170;8.592;2022-09-19T07:58:49;15.60;51.00
17399;DHT22;8817;48.170;8.592;2022-09-19T08:01:16;15.70;50.90
17399;DHT22;8817;48.170;8.592;2022-09-19T08:03:44;15.70;50.90
17399;DHT22;8817;48.170;8.592;2022-09-19T08:06:12;15.70;51.00
17399;DHT22;8817;48.170;8.592;2022-09-19T08:08:39;15.80;51.10
17399;DHT22;8817;48.170;8.592;2022-09-19T08:11:06;15.80;51.10
17399;DHT22;8817;48.170;8.592;2022-09-19T08:13:33;15.80;51.10
17399;DHT22;8817;48.170;8.592;2022-09-19T08:16:00;15.90;51.20
17399;DHT22;8817;48.170;8.592;2022-09-19T08:18:27;15.90;51.20
17399;DHT22;8817;48.170;8.592;2022-09-19T08:20:56;16.00;51.20
17399;DHT22;8817;48.170;8.592;2022-09-19T08:23:22;16.00;51.10
17399;DHT22;8817;48.170;8.592;2022-09-19T08:25:50;16.10;51.20
17399;DHT22;8817;48.170;8.592;2022-09-19T08:28:19;16.10;51.10
17399;DHT22;8817;48.170;8.592;2022-09-19T08:30:47;16.10;51.00
17399;DHT22;8817;48.170;8.592;2022-09-19T08:33:15;16.20;51.00
17399;DHT22;8817;48.170;8.592;2022-09-19T08:35:43;16.20;51.00
17399;DHT22;8817;48.170;8.592;2022-09-19T08:38:12;16.30;51.00
17399;DHT22;8817;48.170;8.592;2022-09-19T08:43:53;16.30;51.00
17399;DHT22;8817;48.170;8.592;2022-09-19T08:46:26;16.40;50.90
17399;DHT22;8817;48.170;8.592;2022-09-19T08:49:00;16.40;50.90
17399;DHT22;8817;48.170;8.592;2022-09-19T08:51:29;16.50;51.00
17399;DHT22;8817;48.170;8.592;2022-09-19T08:54:03;16.50;50.90
17399;DHT22;8817;48.170;8.592;2022-09-19T08:56:35;16.50;50.90
17399;DHT22;8817;48.170;8.592;2022-09-19T08:59:08;16.50;50.90
17399;DHT22;8817;48.170;8.592;2022-09-19T09:01:37;16.60;51.00
17399;DHT22;8817;48.170;8.592;2022-09-19T09:04:16;16.60;50.80
17399;DHT22;8817;48.170;8.592;2022-09-19T09:06:54;16.70;50.80
17399;DHT22;8817;48.170;8.592;2022-09-19T09:09:37;16.70;50.80
17399;DHT22;8817;48.170;8.592;2022-09-19T09:12:14;16.70;50.80
17399;DHT22;8817;48.170;8.592;2022-09-19T09:14:53;16.80;50.80
17399;DHT22;8817;48.170;8.592;2022-09-19T09:17:30;16.80;50.80
17399;DHT22;8817;48.170;8.592;2022-09-19T09:20:21;16.80;50.80
17399;DHT22;8817;48.170;8.592;2022-09-19T09:23:02;16.80;50.90
17399;DHT22;8817;48.170;8.592;2022-09-19T09:25:34;16.80;50.80
17399;DHT22;8817;48.170;8.592;2022-09-19T09:28:05;16.90;50.90
17399;DHT22;8817;48.170;8.592;2022-09-19T09:30:37;16.90;51.00
17399;DHT22;8817;48.170;8.592;2022-09-19T09:33:10;16.90;50.80
17399;DHT22;8817;48.170;8.592;2022-09-19T09:35:43;16.90;50.70
17399;DHT22;8817;48.170;8.592;2022-09-19T09:38:22;17.00;50.80
17399;DHT22;8817;48.170;8.592;2022-09-19T09:40:59;17.00;50.80
17399;DHT22;8817;48.170;8.592;2022-09-19T09:43:54;17.00;50.80
17399;DHT22;8817;48.170;8.592;2022-09-19T09:49:20;17.10;50.90
17399;DHT22;8817;48.170;8.592;2022-09-19T09:51:53;17.20;50.90
17399;DHT22;8817;48.170;8.592;2022-09-19T09:54:36;17.30;51.00
17399;DHT22;8817;48.170;8.592;2022-09-19T09:57:33;17.30;50.80
17399;DHT22;8817;48.170;8.592;2022-09-19T10:00:08;17.30;51.20
17399;DHT22;8817;48.170;8.592;2022-09-19T10:02:59;17.30;50.60
17399;DHT22;8817;48.170;8.592;2022-09-19T10:05:52;17.30;50.70
17399;DHT22;8817;48.170;8.592;2022-09-19T10:08:22;17.40;50.70
17399;DHT22;8817;48.170;8.592;2022-09-19T10:11:01;17.40;51.30
17399;DHT22;8817;48.170;8.592;2022-09-19T10:13:35;17.40;50.70
17399;DHT22;8817;48.170;8.592;2022-09-19T10:16:06;17.50;50.70
17399;DHT22;8817;48.170;8.592;2022-09-19T10:18:41;17.60;50.80
17399;DHT22;8817;48.170;8.592;2022-09-19T10:21:09;17.60;50.80
17399;DHT22;8817;48.170;8.592;2022-09-19T10:23:36;17.70;50.90
17399;DHT22;8817;48.170;8.592;2022-09-19T10:26:04;17.70;50.80
17399;DHT22;8817;48.170;8.592;2022-09-19T10:28:37;17.70;50.70
17399;DHT22;8817;48.170;8.592;2022-09-19T10:31:20;17.80;50.70
17399;DHT22;8817;48.170;8.592;2022-09-19T10:33:49;17.80;50.60
17399;DHT22;8817;48.170;8.592;2022-09-19T10:36:19;17.90;50.50
17399;DHT22;8817;48.170;8.592;2022-09-19T10:38:51;17.90;50.50
17399;DHT22;8817;48.170;8.592;2022-09-19T10:41:24;17.90;50.60
17399;DHT22;8817;48.170;8.592;2022-09-19T10:43:55;18.00;50.60
17399;DHT22;8817;48.170;8.592;2022-09-19T10:46:25;18.00;50.60
17399;DHT22;8817;48.170;8.592;2022-09-19T10:48:58;18.10;50.60
17399;DHT22;8817;48.170;8.592;2022-09-19T10:51:36;18.20;50.60
17399;DHT22;8817;48.170;8.592;2022-09-19T10:54:19;18.20;50.60
17399;DHT22;8817;48.170;8.592;2022-09-19T10:56:47;18.30;50.60
17399;DHT22;8817;48.170;8.592;2022-09-19T10:59:24;18.30;50.60
17399;DHT22;8817;48.170;8.592;2022-09-19T11:02:13;18.40;50.50
17399;DHT22;8817;48.170;8.592;2022-09-19T11:04:52;18.40;50.50
17399;DHT22;8817;48.170;8.592;2022-09-19T11:07:24;18.50;50.60
17399;DHT22;8817;48.170;8.592;2022-09-19T11:09:56;18.60;50.70
17399;DHT22;8817;48.170;8.592;2022-09-19T11:12:26;18.60;50.80
17399;DHT22;8817;48.170;8.592;2022-09-19T11:14:58;18.70;50.90
17399;DHT22;8817;48.170;8.592;2022-09-19T11:20:37;18.90;50.70
17399;DHT22;8817;48.170;8.592;2022-09-19T11:23:21;19.10;50.70
17399;DHT22;8817;48.170;8.592;2022-09-19T11:25:59;19.10;50.60
17399;DHT22;8817;48.170;8.592;2022-09-19T11:28:35;19.20;50.30
17399;DHT22;8817;48.170;8.592;2022-09-19T11:31:12;19.30;50.10
17399;DHT22;8817;48.170;8.592;2022-09-19T11:33:49;19.30;50.00
17399;DHT22;8817;48.170;8.592;2022-09-19T11:36:30;19.30;49.80
17399;DHT22;8817;48.170;8.592;2022-09-19T11:39:05;19.30;49.80
17399;DHT22;8817;48.170;8.592;2022-09-19T11:41:43;19.30;49.80
17399;DHT22;8817;48.170;8.592;2022-09-19T11:44:28;19.20;49.80
17399;DHT22;8817;48.170;8.592;2022-09-19T11:47:12;19.20;49.70
17399;DHT22;8817;48.170;8.592;2022-09-19T11:49:59;19.20;49.60
17399;DHT22;8817;48.170;8.592;2022-09-19T11:52:33;19.10;49.50
17399;DHT22;8817;48.170;8.592;2022-09-19T11:55:17;19.10;49.50
17399;DHT22;8817;48.170;8.592;2022-09-19T11:57:52;19.10;49.50
17399;DHT22;8817;48.170;8.592;2022-09-19T12:00:22;19.10;49.60
17399;DHT22;8817;48.170;8.592;2022-09-19T12:03:24;19.10;49.60
17399;DHT22;8817;48.170;8.592;2022-09-19T12:06:12;19.00;49.50
17399;DHT22;8817;48.170;8.592;2022-09-19T12:08:57;19.00;49.50
17399;DHT22;8817;48.170;8.592;2022-09-19T12:11:34;18.90;49.40
17399;DHT22;8817;48.170;8.592;2022-09-19T12:14:08;18.90;49.40
17399;DHT22;8817;48.170;8.592;2022-09-19T12:16:40;18.90;49.30
17399;DHT22;8817;48.170;8.592;2022-09-19T12:19:13;18.80;49.30
17399;DHT22;8817;48.170;8.592;2022-09-19T12:21:45;18.80;49.30
17399;DHT22;8817;48.170;8.592;2022-09-19T12:24:16;18.80;49.40
17399;DHT22;8817;48.170;8.592;2022-09-19T12:27:06;18.80;49.40
17399;DHT22;8817;48.170;8.592;2022-09-19T12:29:41;18.70;49.40
17399;DHT22;8817;48.170;8.592;2022-09-19T12:32:20;18.70;49.40
17399;DHT22;8817;48.170;8.592;2022-09-19T12:34:56;18.70;49.60
17399;DHT22;8817;48.170;8.592;2022-09-19T12:37:34;18.80;49.80
17399;DHT22;8817;48.170;8.592;2022-09-19T12:40:12;18.90;49.80
17399;DHT22;8817;48.170;8.592;2022-09-19T12:42:45;18.90;49.70
17399;DHT22;8817;48.170;8.592;2022-09-19T12:45:18;19.00;49.60
17399;DHT22;8817;48.170;8.592;2022-09-19T12:47:58;19.10;49.60
17399;DHT22;8817;48.170;8.592;2022-09-19T12:50:31;19.10;49.50
17399;DHT22;8817;48.170;8.592;2022-09-19T12:53:13;19.10;49.40
17399;DHT22;8817;48.170;8.592;2022-09-19T12:55:55;19.10;49.40
17399;DHT22;8817;48.170;8.592;2022-09-19T12:58:24;19.20;49.40
17399;DHT22;8817;48.170;8.592;2022-09-19T13:01:02;19.20;49.30
17399;DHT22;8817;48.170;8.592;2022-09-19T13:03:41;19.20;49.20
17399;DHT22;8817;48.170;8.592;2022-09-19T13:06:14;19.20;49.00
17399;DHT22;8817;48.170;8.592;2022-09-19T13:08:49;19.30;49.00
17399;DHT22;8817;48.170;8.592;2022-09-19T13:11:20;19.20;48.80
17399;DHT22;8817;48.170;8.592;2022-09-19T13:13:52;19.20;48.80
17399;DHT22;8817;48.170;8.592;2022-09-19T13:16:27;19.20;48.80
17399;DHT22;8817;48.170;8.592;2022-09-19T13:18:55;19.20;48.80
17399;DHT22;8817;48.170;8.592;2022-09-19T13:21:43;19.20;48.90
17399;DHT22;8817;48.170;8.592;2022-09-19T13:24:37;19.20;48.90
17399;DHT22;8817;48.170;8.592;2022-09-19T13:27:05;19.30;49.10
17399;DHT22;8817;48.170;8.592;2022-09-19T13:29:48;19.30;49.10
17399;DHT22;8817;48.170;8.592;2022-09-19T13:32:32;19.30;49.10
17399;DHT22;8817;48.170;8.592;2022-09-19T13:35:16;19.40;49.40
17399;DHT22;8817;48.170;8.592;2022-09-19T13:38:01;19.50;49.50
17399;DHT22;8817;48.170;8.592;2022-09-19T13:40:46;19.60;49.60
17399;DHT22;8817;48.170;8.592;2022-09-19T13:43:43;19.80;49.40
17399;DHT22;8817;48.170;8.592;2022-09-19T13:46:17;19.90;49.20
17399;DHT22;8817;48.170;8.592;2022-09-19T13:48:52;20.00;49.10
17399;DHT22;8817;48.170;8.592;2022-09-19T13:51:28;20.10;49.00
17399;DHT22;8817;48.170;8.592;2022-09-19T13:57:17;20.10;48.70
17399;DHT22;8817;48.170;8.592;2022-09-19T13:59:50;20.20;48.60
17399;DHT22;8817;48.170;8.592;2022-09-19T14:02:28;20.20;48.50
17399;DHT22;8817;48.170;8.592;2022-09-19T14:05:03;20.20;48.50
17399;DHT22;8817;48.170;8.592;2022-09-19T14:07:41;20.20;48.40
17399;DHT22;8817;48.170;8.592;2022-09-19T14:10:18;20.20;48.40
17399;DHT22;8817;48.170;8.592;2022-09-19T14:12:58;20.20;48.50
17399;DHT22;8817;48.170;8.592;2022-09-19T14:16:06;20.30;48.50
17399;DHT22;8817;48.170;8.592;2022-09-19T14:18:51;20.30;48.60
17399;DHT22;8817;48.170;8.592;2022-09-19T14:21:54;20.30;48.40
17399;DHT22;8817;48.170;8.592;2022-09-19T14:24:49;20.30;48.40
17399;DHT22;8817;48.170;8.592;2022-09-19T14:36:42;20.40;48.30
17399;DHT22;8817;48.170;8.592;2022-09-19T14:42:43;20.50;48.70
17399;DHT22;8817;48.170;8.592;2022-09-19T14:45:43;20.60;49.10
17399;DHT22;8817;48.170;8.592;2022-09-19T14:48:25;20.80;49.60
17399;DHT22;8817;48.170;8.592;2022-09-19T14:50:56;21.00;49.80
17399;DHT22;8817;48.170;8.592;2022-09-19T14:53:26;21.30;49.90
17399;DHT22;8817;48.170;8.592;2022-09-19T14:55:58;21.50;49.60
17399;DHT22;8817;48.170;8.592;2022-09-19T14:58:27;21.70;49.90
17399;DHT22;8817;48.170;8.592;2022-09-19T15:01:02;21.90;49.30
17399;DHT22;8817;48.170;8.592;2022-09-19T15:03:42;22.00;49.00
17399;DHT22;8817;48.170;8.592;2022-09-19T15:06:15;22.20;49.10
17399;DHT22;8817;48.170;8.592;2022-09-19T15:08:47;22.40;49.10
17399;DHT22;8817;48.170;8.592;2022-09-19T15:11:14;22.60;49.30
17399;DHT22;8817;48.170;8.592;2022-09-19T15:13:47;22.80;49.40
17399;DHT22;8817;48.170;8.592;2022-09-19T15:16:17;23.00;49.30
17399;DHT22;8817;48.170;8.592;2022-09-19T15:18:46;23.10;48.90
17399;DHT22;8817;48.170;8.592;2022-09-19T15:21:16;23.30;49.10
17399;DHT22;8817;48.170;8.592;2022-09-19T15:23:44;23.40;47.90
17399;DHT22;8817;48.170;8.592;2022-09-19T15:26:15;23.40;47.20
17399;DHT22;8817;48.170;8.592;2022-09-19T15:28:54;23.40;46.70
17399;DHT22;8817;48.170;8.592;2022-09-19T15:31:23;23.20;46.40
17399;DHT22;8817;48.170;8.592;2022-09-19T15:34:00;23.10;46.00
17399;DHT22;8817;48.170;8.592;2022-09-19T15:36:28;23.00;45.80
17399;DHT22;8817;48.170;8.592;2022-09-19T15:38:57;22.80;45.70
17399;DHT22;8817;48.170;8.592;2022-09-19T15:41:26;22.60;45.60
17399;DHT22;8817;48.170;8.592;2022-09-19T15:43:55;22.40;45.90
17399;DHT22;8817;48.170;8.592;2022-09-19T15:46:43;22.20;45.60
17399;DHT22;8817;48.170;8.592;2022-09-19T15:49:21;22.00;45.80
17399;DHT22;8817;48.170;8.592;2022-09-19T15:51:55;21.90;45.70
17399;DHT22;8817;48.170;8.592;2022-09-19T15:54:23;21.80;45.70
17399;DHT22;8817;48.170;8.592;2022-09-19T15:56:54;21.70;45.70
17399;DHT22;8817;48.170;8.592;2022-09-19T15:59:24;21.50;45.60
17399;DHT22;8817;48.170;8.592;2022-09-19T16:01:56;21.40;45.60
17399;DHT22;8817;48.170;8.592;2022-09-19T16:04:32;21.30;45.50
17399;DHT22;8817;48.170;8.592;2022-09-19T16:07:00;21.10;45.50
17399;DHT22;8817;48.170;8.592;2022-09-19T16:09:46;21.10;45.50
17399;DHT22;8817;48.170;8.592;2022-09-19T16:12:40;20.90;45.40
17399;DHT22;8817;48.170;8.592;2022-09-19T16:15:21;20.70;45.40
17399;DHT22;8817;48.170;8.592;2022-09-19T16:18:23;20.60;45.40
17399;DHT22;8817;48.170;8.592;2022-09-19T16:20:57;20.50;45.60
17399;DHT22;8817;48.170;8.592;2022-09-19T16:23:26;20.30;45.30
17399;DHT22;8817;48.170;8.592;2022-09-19T16:25:56;20.30;45.50
17399;DHT22;8817;48.170;8.592;2022-09-19T16:28:28;20.20;45.50
17399;DHT22;8817;48.170;8.592;2022-09-19T16:31:03;20.10;45.50
17399;DHT22;8817;48.170;8.592;2022-09-19T16:33:35;20.00;45.50
17399;DHT22;8817;48.170;8.592;2022-09-19T16:36:06;19.90;45.50
17399;DHT22;8817;48.170;8.592;2022-09-19T16:38:34;19.80;45.50
17399;DHT22;8817;48.170;8.592;2022-09-19T16:41:06;19.70;45.50
17399;DHT22;8817;48.170;8.592;2022-09-19T16:43:35;19.70;45.50
17399;DHT22;8817;48.170;8.592;2022-09-19T16:46:09;19.60;45.50
17399;DHT22;8817;48.170;8.592;2022-09-19T16:48:38;19.50;45.50
17399;DHT22;8817;48.170;8.592;2022-09-19T16:51:11;19.40;45.40
17399;DHT22;8817;48.170;8.592;2022-09-19T16:53:40;19.30;45.40